Kearney, Arkansas
Current Conditions -  °F | °C
As of 12:53 AM on Sunday 23 Nov 2014 (Local Time) from KLIT Reporting Station
Overcast Overcast  
Wind Chill: 59°   Ceiling: 7000
Heat Index: 59°   Visibility: 10mi
Dew Point: 50°   Wind: 8mph
Humidity: 72%   Direction: 140°SE
Pressure: 29.82"   Gusts: NA
Location:  34.4462°N, 92.1621°W
Report Text: KLIT 230653Z 14007KT 10SM FEW035 BKN070 OVC250 15/10 A2982 RMK AO2 SLP099 T01500100
Loading
Personal Weather Stations






























Interactive Weather Map New forecast layout! Learn more

10-Day Weather Forecast

Advertisements
Track Severe Weather on mobile